createdAt,value
2023-03-23T15:58:15.262Z,1.50
2023-03-23T15:59:15.229Z,1.40
2023-03-23T16:00:15.212Z,1.60
2023-03-23T16:01:15.283Z,1.50
2023-03-23T16:02:15.236Z,2.30
2023-03-23T16:03:15.222Z,1.90
2023-03-23T16:04:15.215Z,2.30
2023-03-23T16:05:15.208Z,1.00
2023-03-23T16:06:23.311Z,2.20
2023-03-23T16:07:16.118Z,2.60
2023-03-23T16:08:15.113Z,1.60
2023-03-23T16:09:15.116Z,1.70
2023-03-23T16:10:15.098Z,2.40
2023-03-23T16:11:15.081Z,2.60
2023-03-23T16:12:15.049Z,1.40
2023-03-23T16:13:15.045Z,1.30
2023-03-23T16:14:15.056Z,0.90
2023-03-23T16:15:15.051Z,1.80
2023-03-23T16:16:15.064Z,1.40
2023-03-23T16:17:14.998Z,7.10
2023-03-23T16:18:14.978Z,1.30
2023-03-23T16:19:14.975Z,2.20
2023-03-23T16:20:14.964Z,2.00
2023-03-23T16:21:14.932Z,4.60
2023-03-23T16:22:16.594Z,1.20
2023-03-23T16:23:14.901Z,1.90
2023-03-23T16:24:14.917Z,1.30
2023-03-23T16:25:14.911Z,2.40
2023-03-23T16:26:14.913Z,1.60
2023-03-23T16:27:14.858Z,2.10
2023-03-23T16:28:14.840Z,2.00
2023-03-23T16:29:28.309Z,1.30
2023-03-23T16:30:15.830Z,1.30
2023-03-23T16:31:14.882Z,1.40
2023-03-23T16:32:14.855Z,0.80
2023-03-23T16:33:14.811Z,2.50
2023-03-23T16:34:14.810Z,1.00
2023-03-23T16:35:14.754Z,1.20
2023-03-23T16:36:14.774Z,0.90
2023-03-23T16:37:14.719Z,1.20
2023-03-23T16:38:14.713Z,1.40
2023-03-23T16:39:14.705Z,0.90
2023-03-23T16:40:14.693Z,1.90
2023-03-23T16:41:14.670Z,2.40
2023-03-23T16:42:14.654Z,1.50
2023-03-23T16:43:14.621Z,1.30
2023-03-23T16:44:14.648Z,0.80
2023-03-23T16:45:14.620Z,3.10
2023-03-23T16:46:14.649Z,1.50
2023-03-23T16:47:14.595Z,1.70
2023-03-23T16:48:14.583Z,0.90
2023-03-23T16:49:14.565Z,1.50
2023-03-23T16:50:14.540Z,1.60
2023-03-23T16:51:14.526Z,1.80
2023-03-23T16:52:14.508Z,2.50
2023-03-23T16:53:14.491Z,2.20
2023-03-23T16:54:14.501Z,3.10
2023-03-23T16:55:14.475Z,1.80
2023-03-23T16:56:14.462Z,1.80
2023-03-23T16:57:14.454Z,1.20
2023-03-23T16:58:17.512Z,1.40
2023-03-23T16:59:14.432Z,1.20
2023-03-23T17:00:14.396Z,1.90
2023-03-23T17:01:14.432Z,1.70
2023-03-23T17:02:14.452Z,1.60
2023-03-23T17:03:14.413Z,1.80
2023-03-23T17:04:14.369Z,1.50
2023-03-23T17:05:14.333Z,1.10
2023-03-23T17:06:14.331Z,1.60
2023-03-23T17:07:14.326Z,1.10
2023-03-23T17:08:14.326Z,1.60
2023-03-23T17:09:14.304Z,1.40
2023-03-23T17:10:14.271Z,1.40
2023-03-23T17:11:14.270Z,2.20
2023-03-23T17:12:14.256Z,2.10
2023-03-23T17:13:14.211Z,3.00
2023-03-23T17:14:14.231Z,2.10
2023-03-23T17:15:14.224Z,1.50
2023-03-23T17:16:14.756Z,0.70
2023-03-23T17:17:14.167Z,2.80
2023-03-23T17:18:14.157Z,1.90
2023-03-23T17:19:14.161Z,2.40
2023-03-23T17:20:14.145Z,4.40
2023-03-23T17:21:14.122Z,1.50
2023-03-23T17:22:14.149Z,2.10
2023-03-23T17:23:14.081Z,3.00
2023-03-23T17:24:14.083Z,1.60
2023-03-23T17:25:14.066Z,2.30
2023-03-23T17:26:14.068Z,3.50
2023-03-23T17:27:14.028Z,1.70
2023-03-23T17:28:14.022Z,1.90
2023-03-23T17:29:14.011Z,2.00
2023-03-23T17:30:14.002Z,1.80
2023-03-23T17:31:14.093Z,1.90
2023-03-23T17:32:13.968Z,2.30
2023-03-23T17:33:13.952Z,0.80
2023-03-23T17:34:13.953Z,3.70
2023-03-23T17:35:13.924Z,1.50
2023-03-23T17:36:13.962Z,3.10
2023-03-23T17:37:13.896Z,1.30
2023-03-23T17:38:13.962Z,3.40
2023-03-23T17:39:13.879Z,3.20
2023-03-23T17:40:13.869Z,2.30
2023-03-23T17:41:13.871Z,1.80
2023-03-23T17:42:13.835Z,2.00
2023-03-23T17:43:13.832Z,1.60
2023-03-23T17:44:13.813Z,2.70
2023-03-23T17:45:13.796Z,1.40
2023-03-23T17:46:13.815Z,2.10
2023-03-23T17:47:13.762Z,1.80
2023-03-23T17:48:13.815Z,2.40
2023-03-23T17:49:13.742Z,2.60
2023-03-23T17:50:13.743Z,2.20
2023-03-23T17:51:13.715Z,3.10
2023-03-23T17:52:13.714Z,3.10
2023-03-23T17:53:13.677Z,3.30
2023-03-23T17:54:13.679Z,2.10
2023-03-23T17:55:13.651Z,2.40
2023-03-23T17:56:13.654Z,2.40
2023-03-23T17:57:13.641Z,3.50
2023-03-23T17:58:13.629Z,2.70
2023-03-23T17:59:13.609Z,1.90
2023-03-23T18:00:13.614Z,2.30
2023-03-23T18:01:13.589Z,2.70
2023-03-23T18:02:13.646Z,3.80
2023-03-23T18:03:13.596Z,3.60
2023-03-23T18:04:13.563Z,3.50
2023-03-23T18:05:13.519Z,4.00
2023-03-23T18:06:13.510Z,4.10
2023-03-23T18:07:13.488Z,4.10
2023-03-23T18:08:13.517Z,3.10
2023-03-23T18:09:13.470Z,2.30
2023-03-23T18:10:13.463Z,3.10
2023-03-23T18:11:13.440Z,2.00
2023-03-23T18:12:13.448Z,1.90
2023-03-23T18:13:13.417Z,3.00
2023-03-23T18:14:13.411Z,2.70
2023-03-23T18:15:13.393Z,3.20
2023-03-23T18:16:13.403Z,3.00
2023-03-23T18:17:13.371Z,2.30
2023-03-23T18:18:13.354Z,1.60
2023-03-23T18:19:13.382Z,2.30
2023-03-23T18:20:13.345Z,2.10
2023-03-23T18:21:13.358Z,1.60
2023-03-23T18:22:13.308Z,2.00
2023-03-23T18:23:13.280Z,2.40
2023-03-23T18:24:13.292Z,1.90
2023-03-23T18:25:13.268Z,2.80
2023-03-23T18:26:13.259Z,2.10
2023-03-23T18:27:13.393Z,3.60
2023-03-23T18:28:13.215Z,2.40
2023-03-23T18:29:13.216Z,1.80
2023-03-23T18:30:13.192Z,2.20
2023-03-23T18:31:13.254Z,2.10
2023-03-23T18:32:13.200Z,2.30
2023-03-23T18:33:13.154Z,3.80
2023-03-23T18:34:13.145Z,3.00
2023-03-23T18:35:13.131Z,2.20
2023-03-23T18:36:13.154Z,2.20
2023-03-23T18:37:13.102Z,2.10
2023-03-23T18:38:13.096Z,1.90
2023-03-23T18:39:13.080Z,2.30
2023-03-23T18:40:13.054Z,2.30
2023-03-23T18:41:13.045Z,2.60
2023-03-23T18:42:13.030Z,1.80
2023-03-23T18:43:13.026Z,2.20
2023-03-23T18:44:13.030Z,3.10
2023-03-23T18:45:13.029Z,3.60
2023-03-23T18:46:13.010Z,2.10
2023-03-23T18:47:12.974Z,3.40
2023-03-23T18:48:13.033Z,2.70
2023-03-23T18:49:12.942Z,3.70
2023-03-23T18:50:12.937Z,2.30
2023-03-23T18:51:12.912Z,2.70
2023-03-23T18:52:12.900Z,2.40
2023-03-23T18:53:12.876Z,2.60
2023-03-23T18:54:12.898Z,3.00
2023-03-23T18:55:12.880Z,2.50
2023-03-23T18:56:12.841Z,4.40
2023-03-23T18:57:12.895Z,5.20
2023-03-23T18:58:12.812Z,12.20
2023-03-23T18:59:12.817Z,25.50
2023-03-23T19:00:12.793Z,27.60
2023-03-23T19:01:12.802Z,10.80
2023-03-23T19:02:12.787Z,6.70
2023-03-23T19:03:12.782Z,5.10
2023-03-23T19:04:12.762Z,4.70
2023-03-23T19:05:12.735Z,4.20
2023-03-23T19:06:12.722Z,3.70
2023-03-23T19:07:12.702Z,3.40
2023-03-23T19:08:12.699Z,3.90
2023-03-23T19:09:12.693Z,3.20
2023-03-23T19:10:12.679Z,2.60
2023-03-23T19:11:12.652Z,2.70
2023-03-23T19:12:12.653Z,3.60
2023-03-23T19:13:12.639Z,3.40
2023-03-23T19:14:12.625Z,5.10
2023-03-23T19:15:12.592Z,17.10
2023-03-23T19:16:13.621Z,19.10
2023-03-23T19:17:12.579Z,28.90
2023-03-23T19:18:12.552Z,18.90
2023-03-23T19:19:12.569Z,11.10
2023-03-23T19:20:16.108Z,11.10
2023-03-23T19:21:16.531Z,8.20
2023-03-23T19:22:12.622Z,6.90
2023-03-23T19:23:12.499Z,4.80
2023-03-23T19:24:12.526Z,5.20
2023-03-23T19:25:12.468Z,3.10
2023-03-23T19:26:12.452Z,3.00
2023-03-23T19:27:12.452Z,3.40
2023-03-23T19:29:00.562Z,4.30
2023-03-23T19:30:12.390Z,4.10
2023-03-23T19:31:12.415Z,3.10
2023-03-23T19:32:12.372Z,4.10
2023-03-23T19:33:12.362Z,3.40
2023-03-23T19:34:12.385Z,3.60
2023-03-23T19:35:12.334Z,2.90
2023-03-23T19:36:13.457Z,4.60
2023-03-23T19:37:12.320Z,3.30
2023-03-23T19:38:12.317Z,3.40
2023-03-23T19:39:12.313Z,3.00
2023-03-23T19:40:31.319Z,3.00
2023-03-23T19:41:13.251Z,3.30
2023-03-23T19:42:12.257Z,4.30
2023-03-23T19:43:12.244Z,8.50
2023-03-23T19:44:12.219Z,6.60
2023-03-23T19:45:12.209Z,3.70
2023-03-23T19:46:12.217Z,3.50
2023-03-23T19:47:12.232Z,4.50
2023-03-23T19:48:12.204Z,5.90
2023-03-23T19:49:12.195Z,5.20
2023-03-23T19:50:12.129Z,7.40
2023-03-23T19:51:12.134Z,8.70
2023-03-23T19:52:13.603Z,5.70
2023-03-23T19:53:12.096Z,5.20
2023-03-23T19:54:12.107Z,5.30
2023-03-23T19:55:12.547Z,3.40
2023-03-23T19:56:12.051Z,2.90
2023-03-23T19:57:12.215Z,4.30
2023-03-23T19:58:12.031Z,4.40
2023-03-23T19:59:12.028Z,3.10
2023-03-23T20:00:11.993Z,3.80
2023-03-23T20:01:11.995Z,3.40
2023-03-23T20:02:12.050Z,3.90
2023-03-23T20:03:12.217Z,3.30
2023-03-23T20:04:11.974Z,3.20
2023-03-23T20:05:12.424Z,3.90
2023-03-23T20:06:11.925Z,3.30
2023-03-23T20:07:11.923Z,4.40
2023-03-23T20:08:11.878Z,3.00
2023-03-23T20:09:11.918Z,3.00
2023-03-23T20:10:11.856Z,3.50
2023-03-23T20:11:11.858Z,2.90
2023-03-23T20:12:11.830Z,3.70
2023-03-23T20:13:11.831Z,3.60
2023-03-23T20:14:11.860Z,2.70
2023-03-23T20:15:11.789Z,2.80
2023-03-23T20:16:11.804Z,3.60
2023-03-23T20:17:11.812Z,4.10
2023-03-23T20:18:11.801Z,5.10
2023-03-23T20:19:11.875Z,5.00
2023-03-23T20:20:11.717Z,4.90
2023-03-23T20:21:11.715Z,4.70
2023-03-23T20:22:11.712Z,4.60
2023-03-23T20:23:11.697Z,3.10
2023-03-23T20:24:11.681Z,3.10
2023-03-23T20:25:12.270Z,5.60
2023-03-23T20:26:12.422Z,3.70
2023-03-23T20:27:11.633Z,3.50
2023-03-23T20:28:11.628Z,4.30
2023-03-23T20:29:11.644Z,4.30
2023-03-23T20:30:11.585Z,3.90
2023-03-23T20:31:19.835Z,2.80
2023-03-23T20:32:12.566Z,5.20
2023-03-23T20:33:11.611Z,3.70
2023-03-23T20:34:11.555Z,3.80
2023-03-23T20:35:11.524Z,3.80
2023-03-23T20:36:11.552Z,4.50
2023-03-23T20:37:11.499Z,3.40
2023-03-23T20:38:11.483Z,2.70
2023-03-23T20:39:11.482Z,4.30
2023-03-23T20:40:11.446Z,4.90
2023-03-23T20:41:11.460Z,2.70
2023-03-23T20:42:11.440Z,5.30
2023-03-23T20:43:11.418Z,3.40
2023-03-23T20:44:11.459Z,3.40
2023-03-23T20:45:11.420Z,3.30
2023-03-23T20:46:11.389Z,3.20
2023-03-23T20:47:11.384Z,5.70
2023-03-23T20:48:11.369Z,3.40
2023-03-23T20:49:11.360Z,3.00
2023-03-23T20:50:11.336Z,2.80
2023-03-23T20:51:11.338Z,3.10
2023-03-23T20:52:11.295Z,3.00
2023-03-23T20:53:11.296Z,2.50
2023-03-23T20:54:11.294Z,3.30
2023-03-23T20:55:11.252Z,3.70
2023-03-23T20:56:11.268Z,3.70
2023-03-23T20:57:11.276Z,2.50
2023-03-23T20:58:11.226Z,2.70
2023-03-23T20:59:11.279Z,2.80
2023-03-23T21:00:11.246Z,3.20
2023-03-23T21:01:11.206Z,2.10
2023-03-23T21:02:11.179Z,2.30
2023-03-23T21:03:11.155Z,3.00
2023-03-23T21:04:11.167Z,2.80
2023-03-23T21:05:11.165Z,2.20
2023-03-23T21:06:11.120Z,2.70
2023-03-23T21:07:11.100Z,3.00
2023-03-23T21:08:11.098Z,3.40
2023-03-23T21:09:11.099Z,2.70
2023-03-23T21:10:11.080Z,3.10
2023-03-23T21:11:11.038Z,2.30
2023-03-23T21:12:11.044Z,3.70
2023-03-23T21:13:11.015Z,3.30
2023-03-23T21:14:11.015Z,2.60
2023-03-23T21:15:11.009Z,4.20
2023-03-23T21:16:10.976Z,2.50
2023-03-23T21:17:10.963Z,2.10
2023-03-23T21:18:10.961Z,2.80
2023-03-23T21:19:10.964Z,2.60
2023-03-23T21:20:10.934Z,3.50
2023-03-23T21:21:10.922Z,3.00
2023-03-23T21:22:10.907Z,2.80
2023-03-23T21:23:10.934Z,3.00
2023-03-23T21:24:10.889Z,2.50
2023-03-23T21:25:10.865Z,2.40
2023-03-23T21:26:10.845Z,2.00
2023-03-23T21:27:10.829Z,2.60
2023-03-23T21:28:10.807Z,2.90
2023-03-23T21:29:10.819Z,3.00
2023-03-23T21:30:10.786Z,1.50
2023-03-23T21:31:10.770Z,1.90
2023-03-23T21:32:10.785Z,2.60
2023-03-23T21:33:10.759Z,2.00
2023-03-23T21:34:10.736Z,2.30
2023-03-23T21:35:10.719Z,2.90
2023-03-23T21:36:10.712Z,2.00
2023-03-23T21:37:10.693Z,3.00
2023-03-23T21:38:10.670Z,2.10
2023-03-23T21:39:10.679Z,2.40
2023-03-23T21:40:10.655Z,3.40
2023-03-23T21:41:10.652Z,2.70
2023-03-23T21:42:10.637Z,2.60
2023-03-23T21:43:10.613Z,2.40
2023-03-23T21:44:10.616Z,2.40
2023-03-23T21:45:10.600Z,2.90
2023-03-23T21:46:10.571Z,2.50
2023-03-23T21:47:10.576Z,3.30
2023-03-23T21:48:10.598Z,2.10
2023-03-23T21:49:10.557Z,2.90
2023-03-23T21:50:10.530Z,2.40
2023-03-23T21:51:10.520Z,3.10
2023-03-23T21:52:10.483Z,3.20
2023-03-23T21:53:10.486Z,1.90
2023-03-23T21:54:10.482Z,2.00
2023-03-23T21:55:10.461Z,2.00
2023-03-23T21:56:10.449Z,2.20
2023-03-23T21:57:10.517Z,1.70
2023-03-23T21:58:10.402Z,2.20
2023-03-23T21:59:10.417Z,2.90
2023-03-23T22:00:10.378Z,3.10
2023-03-23T22:01:10.417Z,2.40
2023-03-23T22:02:10.377Z,2.60
2023-03-23T22:03:10.401Z,1.80
2023-03-23T22:04:10.337Z,1.90
2023-03-23T22:05:10.329Z,2.80
2023-03-23T22:06:10.301Z,1.70
2023-03-23T22:07:10.283Z,1.40
2023-03-23T22:08:10.277Z,2.50
2023-03-23T22:09:10.271Z,1.60
2023-03-23T22:10:10.248Z,2.40
2023-03-23T22:11:10.264Z,2.10
2023-03-23T22:12:10.247Z,3.00
2023-03-23T22:13:10.216Z,2.40
2023-03-23T22:14:10.199Z,2.60
2023-03-23T22:15:10.181Z,3.00
2023-03-23T22:16:10.234Z,2.30
2023-03-23T22:17:10.173Z,2.80
2023-03-23T22:18:10.181Z,2.10
2023-03-23T22:19:10.137Z,2.60
2023-03-23T22:20:10.133Z,3.50
2023-03-23T22:21:10.118Z,2.10
2023-03-23T22:22:10.077Z,2.60
2023-03-23T22:23:10.087Z,2.00
2023-03-23T22:24:10.059Z,3.40
2023-03-23T22:25:10.042Z,2.70
2023-03-23T22:26:10.043Z,2.60
2023-03-23T22:27:10.029Z,2.20
2023-03-23T22:28:10.000Z,3.70
2023-03-23T22:29:10.023Z,2.80
2023-03-23T22:30:10.003Z,2.10
2023-03-23T22:31:10.010Z,2.00
2023-03-23T22:32:09.979Z,2.00
2023-03-23T22:33:09.972Z,2.30
2023-03-23T22:34:09.944Z,2.70
2023-03-23T22:35:09.924Z,2.40
2023-03-23T22:36:09.984Z,3.10
2023-03-23T22:37:09.911Z,3.40
2023-03-23T22:38:09.881Z,2.90
2023-03-23T22:39:09.894Z,3.60
2023-03-23T22:40:09.868Z,2.70
2023-03-23T22:41:09.853Z,3.70
2023-03-23T22:42:11.063Z,3.70
2023-03-23T22:43:09.828Z,2.80
2023-03-23T22:44:09.822Z,3.20
2023-03-23T22:45:09.808Z,2.30
2023-03-23T22:46:09.879Z,3.00
2023-03-23T22:47:09.791Z,2.40
2023-03-23T22:48:09.756Z,3.20
2023-03-23T22:49:09.770Z,4.20
2023-03-23T22:50:09.758Z,4.10
2023-03-23T22:51:09.740Z,3.30
2023-03-23T22:52:09.700Z,2.30
2023-03-23T22:53:09.679Z,2.50
2023-03-23T22:54:09.685Z,2.60
2023-03-23T22:55:09.665Z,3.10
2023-03-23T22:56:09.663Z,2.30
2023-03-23T22:57:09.677Z,3.50
2023-03-23T22:58:09.608Z,4.10
2023-03-23T22:59:09.632Z,3.00
2023-03-23T23:00:09.594Z,3.10
2023-03-23T23:01:09.617Z,2.60
2023-03-23T23:02:09.599Z,2.40
2023-03-23T23:03:09.546Z,3.10
2023-03-23T23:04:09.652Z,3.40
2023-03-23T23:05:09.516Z,3.00
2023-03-23T23:06:09.505Z,24.20
2023-03-23T23:07:12.778Z,17.10
2023-03-23T23:08:09.494Z,9.40
2023-03-23T23:09:09.496Z,6.40
2023-03-23T23:10:09.476Z,3.30
2023-03-23T23:11:09.446Z,3.60
2023-03-23T23:12:09.425Z,5.10
2023-03-23T23:13:09.440Z,4.70
2023-03-23T23:14:09.432Z,2.90
2023-03-23T23:15:09.410Z,2.60
2023-03-23T23:16:09.411Z,3.10
2023-03-23T23:17:09.376Z,3.30
2023-03-23T23:18:09.341Z,2.80
2023-03-23T23:19:09.353Z,2.30
2023-03-23T23:20:09.318Z,2.90
2023-03-23T23:21:09.308Z,2.00
2023-03-23T23:22:18.437Z,3.10
2023-03-23T23:23:10.292Z,3.80
2023-03-23T23:24:09.281Z,2.80
2023-03-23T23:25:09.260Z,3.10
2023-03-23T23:26:09.231Z,3.90
2023-03-23T23:27:09.247Z,3.10
2023-03-23T23:28:09.232Z,3.20
2023-03-23T23:29:09.225Z,3.90
2023-03-23T23:30:09.201Z,2.70
2023-03-23T23:31:09.273Z,2.70
2023-03-23T23:32:09.153Z,2.60
2023-03-23T23:33:09.192Z,3.30
2023-03-23T23:34:09.169Z,3.40
2023-03-23T23:35:09.139Z,2.00
2023-03-23T23:36:09.140Z,4.70
2023-03-23T23:37:09.159Z,3.90
2023-03-23T23:38:09.090Z,3.20
2023-03-23T23:39:09.168Z,4.40
2023-03-23T23:40:09.056Z,3.10
2023-03-23T23:41:09.050Z,3.50
2023-03-23T23:42:09.059Z,2.90
2023-03-23T23:43:09.026Z,2.40
2023-03-23T23:44:09.000Z,4.80
2023-03-23T23:45:08.993Z,2.80
2023-03-23T23:46:09.052Z,2.20
2023-03-23T23:47:08.996Z,2.00
2023-03-23T23:48:08.959Z,3.60
2023-03-23T23:49:08.960Z,2.60
2023-03-23T23:50:08.936Z,2.70
2023-03-23T23:51:08.917Z,2.60
2023-03-23T23:52:08.898Z,3.50
2023-03-23T23:53:08.893Z,6.10
2023-03-23T23:54:08.883Z,3.00
2023-03-23T23:55:08.919Z,3.10
2023-03-23T23:56:08.830Z,4.10
2023-03-23T23:57:08.881Z,4.90
2023-03-23T23:58:08.824Z,3.50
2023-03-23T23:59:08.819Z,3.80
